sensor_id;sensor_type;location;lat;lon;timestamp;pressure;altitude;pressure_sealevel;temperature;humidity
25238;BME280;13185;50.872;5.306;2023-05-03T00:00:48;102443.25;;;8.82;65.62
25238;BME280;13185;50.872;5.306;2023-05-03T00:03:14;102441.50;;;8.81;65.83
25238;BME280;13185;50.872;5.306;2023-05-03T00:05:40;102448.78;;;8.77;66.15
25238;BME280;13185;50.872;5.306;2023-05-03T00:08:05;102458.63;;;8.75;66.06
25238;BME280;13185;50.872;5.306;2023-05-03T00:10:31;102448.06;;;8.71;66.49
25238;BME280;13185;50.872;5.306;2023-05-03T00:12:56;102449.97;;;8.67;66.55
25238;BME280;13185;50.872;5.306;2023-05-03T00:15:22;102454.53;;;8.63;66.66
25238;BME280;13185;50.872;5.306;2023-05-03T00:17:47;102450.28;;;8.58;67.54
25238;BME280;13185;50.872;5.306;2023-05-03T00:20:13;102453.03;;;8.55;67.02
25238;BME280;13185;50.872;5.306;2023-05-03T00:22:39;102460.22;;;8.53;67.18
25238;BME280;13185;50.872;5.306;2023-05-03T00:25:07;102458.47;;;8.52;67.38
25238;BME280;13185;50.872;5.306;2023-05-03T00:27:33;102456.81;;;8.48;67.70
25238;BME280;13185;50.872;5.306;2023-05-03T00:29:58;102446.22;;;8.45;67.93
25238;BME280;13185;50.872;5.306;2023-05-03T00:32:24;102450.72;;;8.43;67.79
25238;BME280;13185;50.872;5.306;2023-05-03T00:34:56;102450.81;;;8.39;68.13
25238;BME280;13185;50.872;5.306;2023-05-03T00:37:23;102444.75;;;8.33;68.54
25238;BME280;13185;50.872;5.306;2023-05-03T00:39:48;102444.84;;;8.30;68.50
25238;BME280;13185;50.872;5.306;2023-05-03T00:42:14;102450.25;;;8.28;68.65
25238;BME280;13185;50.872;5.306;2023-05-03T00:44:40;102451.28;;;8.24;68.72
25238;BME280;13185;50.872;5.306;2023-05-03T00:47:05;102449.59;;;8.20;69.01
25238;BME280;13185;50.872;5.306;2023-05-03T00:49:32;102447.00;;;8.17;68.95
25238;BME280;13185;50.872;5.306;2023-05-03T00:51:58;102444.41;;;8.16;69.02
25238;BME280;13185;50.872;5.306;2023-05-03T00:54:26;102445.31;;;8.15;69.21
25238;BME280;13185;50.872;5.306;2023-05-03T00:56:52;102448.06;;;8.11;69.38
25238;BME280;13185;50.872;5.306;2023-05-03T00:59:18;102440.19;;;8.07;69.52
25238;BME280;13185;50.872;5.306;2023-05-03T01:01:47;102435.81;;;8.04;69.34
25238;BME280;13185;50.872;5.306;2023-05-03T01:04:13;102439.44;;;8.02;69.64
25238;BME280;13185;50.872;5.306;2023-05-03T01:06:43;102434.13;;;8.00;69.80
25238;BME280;13185;50.872;5.306;2023-05-03T01:09:27;102428.94;;;7.96;70.07
25238;BME280;13185;50.872;5.306;2023-05-03T01:15:06;102421.25;;;7.85;70.81
25238;BME280;13185;50.872;5.306;2023-05-03T01:17:38;102414.31;;;7.78;70.97
25238;BME280;13185;50.872;5.306;2023-05-03T01:20:08;102420.66;;;7.74;71.21
25238;BME280;13185;50.872;5.306;2023-05-03T01:22:59;102423.41;;;7.71;71.33
25238;BME280;13185;50.872;5.306;2023-05-03T01:25:26;102412.81;;;7.68;71.34
25238;BME280;13185;50.872;5.306;2023-05-03T01:27:52;102415.59;;;7.65;71.41
25238;BME280;13185;50.872;5.306;2023-05-03T01:30:20;102418.34;;;7.60;71.48
25238;BME280;13185;50.872;5.306;2023-05-03T01:35:45;102412.38;;;7.52;71.84
25238;BME280;13185;50.872;5.306;2023-05-03T01:38:12;102416.13;;;7.45;72.12
25238;BME280;13185;50.872;5.306;2023-05-03T01:40:45;102421.56;;;7.42;72.33
25238;BME280;13185;50.872;5.306;2023-05-03T01:43:15;102425.28;;;7.35;72.56
25238;BME280;13185;50.872;5.306;2023-05-03T01:45:41;102431.59;;;7.32;72.94
25238;BME280;13185;50.872;5.306;2023-05-03T01:48:12;102436.25;;;7.24;73.44
25238;BME280;13185;50.872;5.306;2023-05-03T01:50:38;102433.63;;;7.22;73.59
25238;BME280;13185;50.872;5.306;2023-05-03T01:53:03;102431.88;;;7.21;73.65
25238;BME280;13185;50.872;5.306;2023-05-03T01:55:28;102446.19;;;7.17;73.64
25238;BME280;13185;50.872;5.306;2023-05-03T01:57:54;102455.25;;;7.12;74.06
25238;BME280;13185;50.872;5.306;2023-05-03T02:00:20;102461.53;;;7.09;74.06
25238;BME280;13185;50.872;5.306;2023-05-03T02:02:45;102456.22;;;7.08;74.24
25238;BME280;13185;50.872;5.306;2023-05-03T02:05:11;102458.06;;;7.06;74.47
25238;BME280;13185;50.872;5.306;2023-05-03T02:07:37;102455.47;;;7.03;74.41
25238;BME280;13185;50.872;5.306;2023-05-03T02:10:04;102452.88;;;7.00;74.69
25238;BME280;13185;50.872;5.306;2023-05-03T02:12:30;102449.41;;;6.96;74.84
25238;BME280;13185;50.872;5.306;2023-05-03T02:14:55;102448.56;;;6.94;74.97
25238;BME280;13185;50.872;5.306;2023-05-03T02:17:21;102453.97;;;6.91;75.21
25238;BME280;13185;50.872;5.306;2023-05-03T02:19:51;102450.47;;;6.89;75.11
25238;BME280;13185;50.872;5.306;2023-05-03T02:22:17;102446.06;;;6.88;75.18
25238;BME280;13185;50.872;5.306;2023-05-03T02:24:42;102448.72;;;6.88;75.18
25238;BME280;13185;50.872;5.306;2023-05-03T02:27:08;102451.41;;;6.86;75.27
25238;BME280;13185;50.872;5.306;2023-05-03T02:29:34;102444.41;;;6.82;75.41
25238;BME280;13185;50.872;5.306;2023-05-03T02:32:03;102444.50;;;6.79;75.71
25238;BME280;13185;50.872;5.306;2023-05-03T02:34:31;102440.97;;;6.77;75.67
25238;BME280;13185;50.872;5.306;2023-05-03T02:36:57;102434.84;;;6.74;75.85
25238;BME280;13185;50.872;5.306;2023-05-03T02:39:23;102436.72;;;6.70;75.88
25238;BME280;13185;50.872;5.306;2023-05-03T02:41:49;102427.00;;;6.66;76.35
25238;BME280;13185;50.872;5.306;2023-05-03T02:44:15;102421.75;;;6.63;76.23
25238;BME280;13185;50.872;5.306;2023-05-03T02:46:41;102428.13;;;6.56;76.34
25238;BME280;13185;50.872;5.306;2023-05-03T02:49:07;102418.50;;;6.50;76.69
25238;BME280;13185;50.872;5.306;2023-05-03T02:51:33;102415.09;;;6.44;76.78
25238;BME280;13185;50.872;5.306;2023-05-03T02:53:59;102408.97;;;6.40;77.05
25238;BME280;13185;50.872;5.306;2023-05-03T02:56:25;102409.00;;;6.39;77.32
25238;BME280;13185;50.872;5.306;2023-05-03T02:58:52;102408.22;;;6.33;77.33
25238;BME280;13185;50.872;5.306;2023-05-03T03:01:18;102396.75;;;6.30;77.32
25238;BME280;13185;50.872;5.306;2023-05-03T03:03:45;102402.16;;;6.27;77.47
25238;BME280;13185;50.872;5.306;2023-05-03T03:06:10;102400.50;;;6.21;77.50
25238;BME280;13185;50.872;5.306;2023-05-03T03:08:37;102405.03;;;6.18;77.65
25238;BME280;13185;50.872;5.306;2023-05-03T03:11:04;102396.22;;;6.14;77.78
25238;BME280;13185;50.872;5.306;2023-05-03T03:13:31;102402.50;;;6.12;77.93
25238;BME280;13185;50.872;5.306;2023-05-03T03:15:58;102403.41;;;6.11;77.92
25238;BME280;13185;50.872;5.306;2023-05-03T03:18:24;102401.69;;;6.08;78.10
25238;BME280;13185;50.872;5.306;2023-05-03T03:20:49;102397.31;;;6.04;78.32
25238;BME280;13185;50.872;5.306;2023-05-03T03:23:16;102401.84;;;6.00;78.32
25238;BME280;13185;50.872;5.306;2023-05-03T03:25:41;102404.59;;;5.97;78.29
25238;BME280;13185;50.872;5.306;2023-05-03T03:28:07;102405.53;;;5.93;78.54
25238;BME280;13185;50.872;5.306;2023-05-03T03:30:34;102406.50;;;5.91;78.50
25238;BME280;13185;50.872;5.306;2023-05-03T03:33:10;102411.84;;;5.88;78.82
25238;BME280;13185;50.872;5.306;2023-05-03T03:35:39;102404.88;;;5.80;79.12
25238;BME280;13185;50.872;5.306;2023-05-03T03:38:05;102407.63;;;5.77;79.06
25238;BME280;13185;50.872;5.306;2023-05-03T03:40:34;102410.34;;;5.74;79.29
25238;BME280;13185;50.872;5.306;2023-05-03T03:42:59;102398.88;;;5.71;79.48
25238;BME280;13185;50.872;5.306;2023-05-03T03:45:25;102403.38;;;5.67;79.51
25238;BME280;13185;50.872;5.306;2023-05-03T03:47:51;102404.38;;;5.63;79.79
25238;BME280;13185;50.872;5.306;2023-05-03T03:50:18;102398.25;;;5.58;79.85
25238;BME280;13185;50.872;5.306;2023-05-03T03:52:43;102388.50;;;5.57;79.98
25238;BME280;13185;50.872;5.306;2023-05-03T03:55:10;102393.00;;;5.55;80.06
25238;BME280;13185;50.872;5.306;2023-05-03T03:57:36;102385.94;;;5.53;80.13
25238;BME280;13185;50.872;5.306;2023-05-03T04:00:02;102384.19;;;5.50;80.26
25238;BME280;13185;50.872;5.306;2023-05-03T04:02:37;102396.66;;;5.48;80.48
25238;BME280;13185;50.872;5.306;2023-05-03T04:05:05;102401.16;;;5.46;80.40
25238;BME280;13185;50.872;5.306;2023-05-03T04:07:31;102403.88;;;5.43;80.79
25238;BME280;13185;50.872;5.306;2023-05-03T04:09:57;102398.56;;;5.41;80.87
25238;BME280;13185;50.872;5.306;2023-05-03T04:12:23;102411.09;;;5.36;81.04
25238;BME280;13185;50.872;5.306;2023-05-03T04:14:49;102408.44;;;5.35;80.97
25238;BME280;13185;50.872;5.306;2023-05-03T04:17:15;102414.66;;;5.35;81.14
25238;BME280;13185;50.872;5.306;2023-05-03T04:19:42;102410.28;;;5.33;81.28
25238;BME280;13185;50.872;5.306;2023-05-03T04:22:09;102417.38;;;5.31;81.34
25238;BME280;13185;50.872;5.306;2023-05-03T04:24:35;102424.53;;;5.27;81.74
25238;BME280;13185;50.872;5.306;2023-05-03T04:27:05;102424.69;;;5.21;82.11
25238;BME280;13185;50.872;5.306;2023-05-03T04:29:34;102430.00;;;5.19;82.10
25238;BME280;13185;50.872;5.306;2023-05-03T04:32:03;102429.09;;;5.20;82.17
25238;BME280;13185;50.872;5.306;2023-05-03T04:34:29;102425.56;;;5.21;82.31
25238;BME280;13185;50.872;5.306;2023-05-03T04:36:56;102430.78;;;5.26;82.24
25238;BME280;13185;50.872;5.306;2023-05-03T04:39:21;102440.47;;;5.29;82.69
25238;BME280;13185;50.872;5.306;2023-05-03T04:41:47;102446.66;;;5.29;82.82
25238;BME280;13185;50.872;5.306;2023-05-03T04:44:13;102454.63;;;5.32;82.94
25238;BME280;13185;50.872;5.306;2023-05-03T04:46:40;102454.59;;;5.34;83.02
25238;BME280;13185;50.872;5.306;2023-05-03T04:49:05;102464.28;;;5.36;82.85
25238;BME280;13185;50.872;5.306;2023-05-03T04:51:31;102460.72;;;5.37;83.35
25238;BME280;13185;50.872;5.306;2023-05-03T04:53:58;102458.03;;;5.39;83.48
25238;BME280;13185;50.872;5.306;2023-05-03T04:56:25;102463.31;;;5.42;83.50
25238;BME280;13185;50.872;5.306;2023-05-03T04:58:54;102454.34;;;5.47;83.86
25238;BME280;13185;50.872;5.306;2023-05-03T05:01:20;102453.34;;;5.51;83.74
25238;BME280;13185;50.872;5.306;2023-05-03T05:03:53;102460.34;;;5.59;83.81
25238;BME280;13185;50.872;5.306;2023-05-03T05:06:23;102470.84;;;5.66;84.02
25238;BME280;13185;50.872;5.306;2023-05-03T05:08:49;102472.50;;;5.73;84.09
25238;BME280;13185;50.872;5.306;2023-05-03T05:11:15;102474.09;;;5.80;84.17
25238;BME280;13185;50.872;5.306;2023-05-03T05:13:40;102472.19;;;5.89;84.09
25238;BME280;13185;50.872;5.306;2023-05-03T05:16:06;102477.38;;;5.98;84.00
25238;BME280;13185;50.872;5.306;2023-05-03T05:18:32;102482.56;;;6.05;83.77
25238;BME280;13185;50.872;5.306;2023-05-03T05:21:01;102477.03;;;6.13;83.78
25238;BME280;13185;50.872;5.306;2023-05-03T05:23:29;102481.31;;;6.22;83.66
25238;BME280;13185;50.872;5.306;2023-05-03T05:25:55;102486.44;;;6.31;83.68
25238;BME280;13185;50.872;5.306;2023-05-03T05:28:26;102484.47;;;6.41;83.19
25238;BME280;13185;50.872;5.306;2023-05-03T05:30:53;102491.34;;;6.51;82.78
25238;BME280;13185;50.872;5.306;2023-05-03T05:33:19;102488.44;;;6.61;82.54
25238;BME280;13185;50.872;5.306;2023-05-03T05:35:46;102496.19;;;6.72;82.47
25238;BME280;13185;50.872;5.306;2023-05-03T05:38:15;102495.03;;;6.84;82.12
25238;BME280;13185;50.872;5.306;2023-05-03T05:40:42;102488.53;;;6.95;82.41
25238;BME280;13185;50.872;5.306;2023-05-03T05:43:08;102486.47;;;7.07;82.00
25238;BME280;13185;50.872;5.306;2023-05-03T05:45:37;102486.25;;;7.16;81.87
25238;BME280;13185;50.872;5.306;2023-05-03T05:48:04;102477.97;;;7.27;81.88
25238;BME280;13185;50.872;5.306;2023-05-03T05:50:31;102483.00;;;7.39;81.45
25238;BME280;13185;50.872;5.306;2023-05-03T05:53:01;102468.50;;;7.49;81.21
25238;BME280;13185;50.872;5.306;2023-05-03T05:55:30;102475.34;;;7.59;80.56
25238;BME280;13185;50.872;5.306;2023-05-03T05:57:57;102474.31;;;7.65;80.42
25238;BME280;13185;50.872;5.306;2023-05-03T06:00:30;102473.25;;;7.72;80.04
25238;BME280;13185;50.872;5.306;2023-05-03T06:02:56;102472.97;;;7.81;79.78
25238;BME280;13185;50.872;5.306;2023-05-03T06:05:21;102477.94;;;7.95;79.68
25238;BME280;13185;50.872;5.306;2023-05-03T06:07:48;102484.69;;;8.08;79.03
25238;BME280;13185;50.872;5.306;2023-05-03T06:10:14;102490.59;;;8.19;79.01
25238;BME280;13185;50.872;5.306;2023-05-03T06:12:53;102483.03;;;8.33;78.43
25238;BME280;13185;50.872;5.306;2023-05-03T06:15:24;102493.47;;;8.44;77.90
25238;BME280;13185;50.872;5.306;2023-05-03T06:17:50;102480.00;;;8.47;77.15
25238;BME280;13185;50.872;5.306;2023-05-03T06:20:16;102485.03;;;8.58;77.52
25238;BME280;13185;50.872;5.306;2023-05-03T06:22:42;102481.09;;;8.70;77.08
25238;BME280;13185;50.872;5.306;2023-05-03T06:25:10;102477.16;;;8.81;76.66
25238;BME280;13185;50.872;5.306;2023-05-03T06:27:38;102468.66;;;8.96;76.36
25238;BME280;13185;50.872;5.306;2023-05-03T06:30:05;102463.03;;;9.04;76.12
25238;BME280;13185;50.872;5.306;2023-05-03T06:32:32;102464.41;;;9.16;75.75
25238;BME280;13185;50.872;5.306;2023-05-03T06:34:58;102466.03;;;9.21;75.21
25238;BME280;13185;50.872;5.306;2023-05-03T06:37:25;102463.03;;;9.31;74.83
25238;BME280;13185;50.872;5.306;2023-05-03T06:39:50;102466.53;;;9.33;73.75
25238;BME280;13185;50.872;5.306;2023-05-03T06:42:17;102459.38;;;9.33;73.63
25238;BME280;13185;50.872;5.306;2023-05-03T06:44:43;102461.81;;;9.41;73.45
25238;BME280;13185;50.872;5.306;2023-05-03T06:47:11;102466.66;;;9.54;73.57
25238;BME280;13185;50.872;5.306;2023-05-03T06:49:36;102462.53;;;9.71;73.46
25238;BME280;13185;50.872;5.306;2023-05-03T06:52:02;102467.50;;;9.81;72.80
25238;BME280;13185;50.872;5.306;2023-05-03T06:54:27;102465.72;;;10.05;72.60
25238;BME280;13185;50.872;5.306;2023-05-03T06:56:53;102462.59;;;10.18;72.06
25238;BME280;13185;50.872;5.306;2023-05-03T06:59:18;102465.97;;;10.24;70.88
25238;BME280;13185;50.872;5.306;2023-05-03T07:01:44;102456.78;;;10.30;69.33
25238;BME280;13185;50.872;5.306;2023-05-03T07:04:11;102455.97;;;10.28;69.71
25238;BME280;13185;50.872;5.306;2023-05-03T07:06:36;102457.38;;;10.38;69.42
25238;BME280;13185;50.872;5.306;2023-05-03T07:09:03;102451.72;;;10.46;69.56
25238;BME280;13185;50.872;5.306;2023-05-03T07:11:29;102454.97;;;10.54;69.04
25238;BME280;13185;50.872;5.306;2023-05-03T07:13:55;102451.16;;;10.59;67.93
25238;BME280;13185;50.872;5.306;2023-05-03T07:16:21;102448.81;;;10.74;67.88
25238;BME280;13185;50.872;5.306;2023-05-03T07:18:48;102447.13;;;10.71;66.89
25238;BME280;13185;50.872;5.306;2023-05-03T07:21:13;102451.00;;;10.86;67.54
25238;BME280;13185;50.872;5.306;2023-05-03T07:23:40;102441.81;;;10.91;66.31
25238;BME280;13185;50.872;5.306;2023-05-03T07:26:06;102434.47;;;10.96;66.91
25238;BME280;13185;50.872;5.306;2023-05-03T07:28:31;102435.00;;;11.26;66.86
25238;BME280;13185;50.872;5.306;2023-05-03T07:30:57;102442.72;;;11.54;66.78
25238;BME280;13185;50.872;5.306;2023-05-03T07:33:24;102436.00;;;11.65;65.18
25238;BME280;13185;50.872;5.306;2023-05-03T07:35:49;102437.94;;;11.61;65.30
25238;BME280;13185;50.872;5.306;2023-05-03T07:38:15;102438.34;;;11.72;65.15
25238;BME280;13185;50.872;5.306;2023-05-03T07:40:41;102436.06;;;11.43;64.75
25238;BME280;13185;50.872;5.306;2023-05-03T07:43:08;102431.78;;;11.39;65.37
25238;BME280;13185;50.872;5.306;2023-05-03T07:45:35;102431.94;;;11.34;65.43
25238;BME280;13185;50.872;5.306;2023-05-03T07:48:00;102426.56;;;11.34;66.72
25238;BME280;13185;50.872;5.306;2023-05-03T07:50:26;102431.88;;;11.36;65.93
25238;BME280;13185;50.872;5.306;2023-05-03T07:52:52;102430.03;;;11.38;66.99
25238;BME280;13185;50.872;5.306;2023-05-03T07:55:18;102426.13;;;11.45;66.35
25238;BME280;13185;50.872;5.306;2023-05-03T07:57:45;102423.50;;;11.43;65.67
25238;BME280;13185;50.872;5.306;2023-05-03T08:00:11;102424.03;;;11.51;66.16
25238;BME280;13185;50.872;5.306;2023-05-03T08:02:40;102421.44;;;11.50;66.04
25238;BME280;13185;50.872;5.306;2023-05-03T08:05:06;102422.69;;;11.62;64.74
25238;BME280;13185;50.872;5.306;2023-05-03T08:07:33;102417.25;;;11.63;65.48
25238;BME280;13185;50.872;5.306;2023-05-03T08:09:58;102424.38;;;11.84;65.32
25238;BME280;13185;50.872;5.306;2023-05-03T08:12:25;102415.81;;;11.95;64.72
25238;BME280;13185;50.872;5.306;2023-05-03T08:14:51;102419.31;;;11.97;64.20
25238;BME280;13185;50.872;5.306;2023-05-03T08:17:18;102411.19;;;11.99;64.98
25238;BME280;13185;50.872;5.306;2023-05-03T08:19:43;102407.41;;;12.03;65.32
25238;BME280;13185;50.872;5.306;2023-05-03T08:22:09;102413.75;;;12.02;65.14
25238;BME280;13185;50.872;5.306;2023-05-03T08:24:39;102412.22;;;12.15;65.44
25238;BME280;13185;50.872;5.306;2023-05-03T08:27:07;102408.31;;;12.22;63.88
25238;BME280;13185;50.872;5.306;2023-05-03T08:29:34;102405.19;;;12.31;63.85
25238;BME280;13185;50.872;5.306;2023-05-03T08:32:02;102390.63;;;12.35;63.19
25238;BME280;13185;50.872;5.306;2023-05-03T08:34:28;102391.41;;;12.37;60.26
25238;BME280;13185;50.872;5.306;2023-05-03T08:36:55;102399.72;;;12.33;59.97
25238;BME280;13185;50.872;5.306;2023-05-03T08:39:22;102387.78;;;12.38;60.50
25238;BME280;13185;50.872;5.306;2023-05-03T08:41:49;102402.63;;;12.28;59.48
25238;BME280;13185;50.872;5.306;2023-05-03T08:44:21;102395.50;;;12.27;57.73
25238;BME280;13185;50.872;5.306;2023-05-03T08:46:48;102405.88;;;12.16;58.75
25238;BME280;13185;50.872;5.306;2023-05-03T08:49:15;102394.06;;;12.20;57.27
25238;BME280;13185;50.872;5.306;2023-05-03T08:51:42;102387.31;;;12.30;58.44
25238;BME280;13185;50.872;5.306;2023-05-03T08:54:12;102386.31;;;12.50;58.33
25238;BME280;13185;50.872;5.306;2023-05-03T08:56:41;102376.78;;;12.62;58.03
25238;BME280;13185;50.872;5.306;2023-05-03T08:59:07;102375.19;;;12.58;57.61
25238;BME280;13185;50.872;5.306;2023-05-03T09:01:39;102371.53;;;12.59;56.97
25238;BME280;13185;50.872;5.306;2023-05-03T09:04:06;102363.38;;;12.60;56.79
25238;BME280;13185;50.872;5.306;2023-05-03T09:06:33;102368.22;;;12.54;57.04
25238;BME280;13185;50.872;5.306;2023-05-03T09:09:00;102368.94;;;12.57;56.33
25238;BME280;13185;50.872;5.306;2023-05-03T09:11:28;102384.78;;;12.63;56.55
25238;BME280;13185;50.872;5.306;2023-05-03T09:14:13;102403.56;;;12.65;55.94
25238;BME280;13185;50.872;5.306;2023-05-03T09:16:40;102393.50;;;12.68;56.70
25238;BME280;13185;50.872;5.306;2023-05-03T09:19:06;102389.66;;;12.74;55.73
25238;BME280;13185;50.872;5.306;2023-05-03T09:21:34;102383.16;;;12.78;54.42
25238;BME280;13185;50.872;5.306;2023-05-03T09:24:01;102393.63;;;12.84;55.33
25238;BME280;13185;50.872;5.306;2023-05-03T09:26:33;102387.69;;;12.95;56.08
25238;BME280;13185;50.872;5.306;2023-05-03T09:29:00;102392.69;;;13.03;54.24
25238;BME280;13185;50.872;5.306;2023-05-03T09:31:28;102380.97;;;13.04;55.08
25238;BME280;13185;50.872;5.306;2023-05-03T09:33:54;102379.69;;;13.11;55.88
25238;BME280;13185;50.872;5.306;2023-05-03T09:36:20;102372.91;;;13.21;55.04
25238;BME280;13185;50.872;5.306;2023-05-03T09:38:46;102379.25;;;13.20;55.16
25238;BME280;13185;50.872;5.306;2023-05-03T09:41:12;102381.66;;;13.26;54.47
25238;BME280;13185;50.872;5.306;2023-05-03T09:43:51;102376.09;;;13.29;55.04
25238;BME280;13185;50.872;5.306;2023-05-03T09:46:17;102378.88;;;13.45;54.49
25238;BME280;13185;50.872;5.306;2023-05-03T09:48:43;102361.31;;;13.53;54.52
25238;BME280;13185;50.872;5.306;2023-05-03T09:51:10;102367.44;;;13.57;54.69
25238;BME280;13185;50.872;5.306;2023-05-03T09:53:37;102376.03;;;13.64;55.02
25238;BME280;13185;50.872;5.306;2023-05-03T09:56:04;102370.81;;;13.61;53.05
25238;BME280;13185;50.872;5.306;2023-05-03T09:58:34;102370.91;;;13.59;54.23
25238;BME280;13185;50.872;5.306;2023-05-03T10:01:00;102368.50;;;13.70;52.41
25238;BME280;13185;50.872;5.306;2023-05-03T10:03:43;102371.75;;;13.77;52.74
25238;BME280;13185;50.872;5.306;2023-05-03T10:06:24;102364.91;;;13.87;54.68
25238;BME280;13185;50.872;5.306;2023-05-03T10:08:59;102359.25;;;13.92;52.99
25238;BME280;13185;50.872;5.306;2023-05-03T10:11:26;102350.88;;;13.80;52.31
25238;BME280;13185;50.872;5.306;2023-05-03T10:13:52;102358.56;;;13.88;53.20
25238;BME280;13185;50.872;5.306;2023-05-03T10:16:24;102355.16;;;14.00;53.31
25238;BME280;13185;50.872;5.306;2023-05-03T10:18:58;102361.78;;;14.10;52.48
25238;BME280;13185;50.872;5.306;2023-05-03T10:24:30;102349.53;;;14.21;50.51
25238;BME280;13185;50.872;5.306;2023-05-03T10:26:57;102340.84;;;14.47;50.61
25238;BME280;13185;50.872;5.306;2023-05-03T10:32:04;102338.94;;;14.79;50.80
25238;BME280;13185;50.872;5.306;2023-05-03T10:34:31;102335.56;;;14.91;50.27
25238;BME280;13185;50.872;5.306;2023-05-03T10:37:07;102336.41;;;14.92;49.35
25238;BME280;13185;50.872;5.306;2023-05-03T10:39:33;102334.75;;;14.89;48.93
25238;BME280;13185;50.872;5.306;2023-05-03T10:42:04;102327.06;;;14.97;49.81
25238;BME280;13185;50.872;5.306;2023-05-03T10:47:32;102335.03;;;15.29;48.73
25238;BME280;13185;50.872;5.306;2023-05-03T10:55:08;102333.59;;;15.23;48.29
25238;BME280;13185;50.872;5.306;2023-05-03T10:57:36;102328.22;;;15.38;48.75
25238;BME280;13185;50.872;5.306;2023-05-03T11:00:04;102326.56;;;15.49;47.32
25238;BME280;13185;50.872;5.306;2023-05-03T11:02:36;102327.66;;;15.47;47.23
25238;BME280;13185;50.872;5.306;2023-05-03T11:05:04;102317.41;;;15.52;47.38
25238;BME280;13185;50.872;5.306;2023-05-03T11:07:33;102316.91;;;15.59;46.40
25238;BME280;13185;50.872;5.306;2023-05-03T11:09:59;102312.59;;;15.57;46.69
25238;BME280;13185;50.872;5.306;2023-05-03T11:12:24;102300.47;;;15.64;47.06
25238;BME280;13185;50.872;5.306;2023-05-03T11:14:50;102303.53;;;15.72;47.51
25238;BME280;13185;50.872;5.306;2023-05-03T11:17:15;102301.91;;;15.84;47.61
25238;BME280;13185;50.872;5.306;2023-05-03T11:19:45;102289.69;;;15.91;47.54
25238;BME280;13185;50.872;5.306;2023-05-03T11:22:11;102284.00;;;15.96;47.20
25238;BME280;13185;50.872;5.306;2023-05-03T11:24:37;102289.97;;;16.01;47.58
25238;BME280;13185;50.872;5.306;2023-05-03T11:27:02;102281.56;;;16.05;47.15
25238;BME280;13185;50.872;5.306;2023-05-03T11:29:29;102281.19;;;15.97;46.44
25238;BME280;13185;50.872;5.306;2023-05-03T11:31:54;102274.97;;;16.09;47.00
25238;BME280;13185;50.872;5.306;2023-05-03T11:34:20;102279.09;;;16.15;47.04
25238;BME280;13185;50.872;5.306;2023-05-03T11:36:45;102274.25;;;16.20;46.84
25238;BME280;13185;50.872;5.306;2023-05-03T11:39:12;102269.97;;;16.30;46.06
25238;BME280;13185;50.872;5.306;2023-05-03T11:41:38;102273.03;;;16.38;45.61
25238;BME280;13185;50.872;5.306;2023-05-03T11:44:06;102274.78;;;16.39;45.01
25238;BME280;13185;50.872;5.306;2023-05-03T11:46:33;102275.50;;;16.29;45.31
25238;BME280;13185;50.872;5.306;2023-05-03T11:49:00;102272.31;;;16.49;45.82
25238;BME280;13185;50.872;5.306;2023-05-03T11:51:26;102275.72;;;16.65;45.90
25238;BME280;13185;50.872;5.306;2023-05-03T11:53:52;102269.31;;;16.66;45.00
25238;BME280;13185;50.872;5.306;2023-05-03T11:56:18;102265.47;;;16.70;46.04
25238;BME280;13185;50.872;5.306;2023-05-03T11:59:03;102268.66;;;16.90;45.23
25238;BME280;13185;50.872;5.306;2023-05-03T12:01:28;102262.28;;;16.91;44.16
25238;BME280;13185;50.872;5.306;2023-05-03T12:03:59;102253.91;;;16.94;44.87
25238;BME280;13185;50.872;5.306;2023-05-03T12:06:30;102265.09;;;17.02;45.74
25238;BME280;13185;50.872;5.306;2023-05-03T12:08:57;102260.44;;;17.17;45.48
25238;BME280;13185;50.872;5.306;2023-05-03T12:11:23;102268.56;;;17.29;44.96
25238;BME280;13185;50.872;5.306;2023-05-03T12:13:57;102258.25;;;17.47;44.38
25238;BME280;13185;50.872;5.306;2023-05-03T12:16:23;102264.63;;;17.59;44.12
25238;BME280;13185;50.872;5.306;2023-05-03T12:18:58;102255.63;;;17.71;43.27
25238;BME280;13185;50.872;5.306;2023-05-03T12:22:02;102259.66;;;17.66;42.84
25238;BME280;13185;50.872;5.306;2023-05-03T12:24:28;102246.50;;;17.59;43.13
25238;BME280;13185;50.872;5.306;2023-05-03T12:26:53;102248.25;;;17.60;42.88
25238;BME280;13185;50.872;5.306;2023-05-03T12:29:19;102237.19;;;17.64;43.34
25238;BME280;13185;50.872;5.306;2023-05-03T12:31:44;102236.22;;;17.77;43.03
25238;BME280;13185;50.872;5.306;2023-05-03T12:34:10;102237.38;;;17.86;42.38
25238;BME280;13185;50.872;5.306;2023-05-03T12:36:37;102230.06;;;17.99;42.83
25238;BME280;13185;50.872;5.306;2023-05-03T12:39:02;102217.88;;;18.05;42.38
25238;BME280;13185;50.872;5.306;2023-05-03T12:41:28;102218.63;;;18.07;42.25
25238;BME280;13185;50.872;5.306;2023-05-03T12:43:59;102210.72;;;18.04;41.94
25238;BME280;13185;50.872;5.306;2023-05-03T12:46:26;102214.81;;;18.09;41.87
25238;BME280;13185;50.872;5.306;2023-05-03T12:48:55;102206.09;;;18.17;42.16
25238;BME280;13185;50.872;5.306;2023-05-03T12:51:20;102208.75;;;18.30;41.23
25238;BME280;13185;50.872;5.306;2023-05-03T12:53:46;102196.66;;;18.34;41.55
25238;BME280;13185;50.872;5.306;2023-05-03T12:56:12;102184.34;;;18.41;41.74
25238;BME280;13185;50.872;5.306;2023-05-03T12:58:38;102185.38;;;18.51;41.25
25238;BME280;13185;50.872;5.306;2023-05-03T13:01:04;102184.09;;;18.44;40.97
25238;BME280;13185;50.872;5.306;2023-05-03T13:03:29;102175.53;;;18.61;40.81
25238;BME280;13185;50.872;5.306;2023-05-03T13:05:56;102174.09;;;18.68;40.48
25238;BME280;13185;50.872;5.306;2023-05-03T13:08:21;102151.50;;;18.68;40.65
25238;BME280;13185;50.872;5.306;2023-05-03T13:10:48;102160.50;;;18.68;40.66
25238;BME280;13185;50.872;5.306;2023-05-03T13:13:15;102155.97;;;18.80;40.49
25238;BME280;13185;50.872;5.306;2023-05-03T13:15:41;102156.69;;;18.82;40.03